Time;durP1;ratioP1;P1;durP2;ratioP2;P2;SDS_P1;SDS_P2;PMS_P1;PMS_P2;Temp;Humidity;BMP_temperature;BMP_pressure;BME280_temperature;BME280_humidity;BME280_pressure;Samples;Min_cycle;Max_cycle;Signal;HPM_P1;HPM_P2
2022/10/02 00:01:53;;;;;;;4.83;4.27;;;13.20;99.90;;;;;;6013470;29;20487;-67
2022/10/02 00:05:02;;;;;;;6.10;5.17;;;13.10;99.90;;;;;;6013226;29;21004;-66
2022/10/02 00:08:11;;;;;;;6.27;5.67;;;13.10;99.90;;;;;;6013205;29;20484;-66
2022/10/02 00:11:19;;;;;;;5.83;5.20;;;13.10;99.90;;;;;;6013691;29;20840;-66
2022/10/02 00:14:24;;;;;;;5.83;5.30;;;13.10;99.90;;;;;;6013150;29;20484;-66
2022/10/02 00:17:35;;;;;;;7.43;5.17;;;13.10;99.90;;;;;;6013064;29;20979;-66
2022/10/02 00:20:43;;;;;;;6.90;4.60;;;13.00;99.90;;;;;;6012719;29;20582;-67
2022/10/02 00:23:51;;;;;;;4.40;3.87;;;12.90;99.90;;;;;;6013132;29;20472;-67
2022/10/02 00:27:00;;;;;;;3.97;3.67;;;12.90;99.90;;;;;;6012580;29;20503;-65
2022/10/02 00:30:06;;;;;;;4.90;4.40;;;13.00;99.90;;;;;;6012867;29;20966;-65
2022/10/02 00:33:20;;;;;;;5.63;4.33;;;12.90;99.90;;;;;;6013701;29;21028;-65
2022/10/02 00:36:34;;;;;;;5.17;4.17;;;12.80;99.90;;;;;;6013507;29;20472;-66
2022/10/02 00:39:51;;;;;;;4.10;3.43;;;12.80;99.90;;;;;;6012689;29;20796;-66
2022/10/02 00:43:12;;;;;;;4.13;2.93;;;12.80;99.90;;;;;;6012735;29;20506;-67
2022/10/02 00:46:32;;;;;;;2.50;2.30;;;12.80;99.90;;;;;;6013003;29;20485;-67
2022/10/02 00:49:51;;;;;;;4.07;2.50;;;12.70;99.90;;;;;;6006171;29;20493;-67
2022/10/02 00:53:08;;;;;;;2.47;2.27;;;12.70;99.90;;;;;;6003220;29;20484;-67
2022/10/02 00:56:24;;;;;;;3.50;2.97;;;12.70;99.90;;;;;;6012593;29;20484;-67
2022/10/02 00:59:53;;;;;;;2.27;2.17;;;12.80;99.90;;;;;;6011666;29;20501;-64
2022/10/02 01:03:10;;;;;;;3.50;2.33;;;12.80;99.90;;;;;;6009275;29;20500;-64
2022/10/02 01:06:14;;;;;;;2.73;1.70;;;12.80;99.90;;;;;;6010893;29;20476;-64
2022/10/02 01:09:18;;;;;;;3.70;2.17;;;12.80;99.90;;;;;;6010768;29;20520;-64
2022/10/02 01:12:22;;;;;;;2.43;1.80;;;12.80;99.90;;;;;;6010938;29;20488;-64
2022/10/02 01:15:30;;;;;;;2.00;1.33;;;12.80;99.90;;;;;;6011893;29;20965;-68
2022/10/02 01:18:34;;;;;;;2.20;1.57;;;12.90;99.90;;;;;;6011731;29;21053;-67
2022/10/02 01:21:44;;;;;;;2.20;1.30;;;12.90;99.90;;;;;;6026341;29;20483;-68
2022/10/02 01:24:50;;;;;;;2.30;1.37;;;12.90;99.90;;;;;;6024273;29;20491;-68
2022/10/02 01:27:53;;;;;;;1.33;1.20;;;12.80;99.90;;;;;;6019089;29;20486;-67
2022/10/02 01:31:01;;;;;;;1.27;1.17;;;12.90;99.90;;;;;;6018944;29;20472;-67
2022/10/02 01:34:05;;;;;;;1.40;1.20;;;12.80;99.90;;;;;;6018811;29;21000;-67
2022/10/02 01:37:09;;;;;;;2.63;1.00;;;12.80;99.90;;;;;;6026714;29;20988;-67
2022/10/02 01:40:24;;;;;;;2.10;1.00;;;12.80;99.90;;;;;;6021376;29;20940;-68
2022/10/02 01:43:31;;;;;;;0.97;0.90;;;12.70;99.90;;;;;;6023113;29;20448;-67
2022/10/02 01:46:38;;;;;;;1.40;1.30;;;12.70;99.90;;;;;;6025225;29;20468;-68
2022/10/02 01:50:01;;;;;;;1.40;1.10;;;12.70;99.90;;;;;;6025479;29;20977;-68
2022/10/02 01:53:12;;;;;;;2.77;2.57;;;12.60;99.90;;;;;;6020296;29;21037;-68
2022/10/02 01:56:23;;;;;;;5.70;5.20;;;12.50;99.90;;;;;;6011762;29;20548;-68
2022/10/02 01:59:38;;;;;;;4.50;4.10;;;12.30;99.90;;;;;;6016288;29;20495;-68
2022/10/02 02:02:52;;;;;;;1.93;1.83;;;12.40;99.90;;;;;;6016152;29;20484;-68
2022/10/02 02:06:02;;;;;;;2.43;2.23;;;12.40;99.90;;;;;;6015857;29;20491;-68
2022/10/02 02:09:12;;;;;;;2.37;1.47;;;12.40;99.90;;;;;;6015765;29;20495;-68
2022/10/02 02:12:21;;;;;;;1.90;1.80;;;12.40;99.90;;;;;;6016012;29;21003;-68
2022/10/02 02:15:28;;;;;;;1.30;1.20;;;12.40;99.90;;;;;;6015601;29;20839;-69
2022/10/02 02:18:35;;;;;;;3.67;2.27;;;12.50;99.90;;;;;;6016108;29;20817;-68
2022/10/02 02:21:42;;;;;;;1.40;1.30;;;12.40;99.90;;;;;;6015506;29;20500;-68
2022/10/02 02:24:51;;;;;;;2.13;2.03;;;12.40;99.90;;;;;;6015444;29;20508;-68
2022/10/02 02:27:58;;;;;;;10.23;9.40;;;12.30;99.90;;;;;;6015491;29;20552;-68
2022/10/02 02:31:05;;;;;;;5.30;4.90;;;12.30;99.90;;;;;;6015736;29;20624;-69
2022/10/02 02:34:11;;;;;;;2.57;2.37;;;12.30;99.90;;;;;;6015510;29;20559;-68
2022/10/02 02:37:20;;;;;;;1.93;1.43;;;12.30;99.90;;;;;;6015425;29;20540;-67
2022/10/02 02:40:28;;;;;;;1.53;1.43;;;12.30;99.90;;;;;;6015249;29;20429;-68
2022/10/02 02:43:37;;;;;;;1.70;1.60;;;12.30;99.90;;;;;;6015080;29;20480;-67
2022/10/02 02:50:07;;;;;;;1.37;1.27;;;12.10;99.90;;;;;;6014995;29;20616;-68
2022/10/02 02:53:14;;;;;;;1.40;1.30;;;12.10;99.90;;;;;;6014786;29;20491;-69
2022/10/02 02:56:20;;;;;;;1.27;1.13;;;12.10;99.90;;;;;;6014633;29;20873;-68
2022/10/02 02:59:28;;;;;;;2.63;1.20;;;12.10;99.90;;;;;;6010378;29;20584;-69
2022/10/02 03:02:31;;;;;;;1.57;1.00;;;12.10;99.90;;;;;;6015090;29;20523;-68
2022/10/02 03:05:39;;;;;;;2.07;1.87;;;12.20;99.90;;;;;;6014631;29;20973;-69
2022/10/02 03:08:42;;;;;;;2.10;1.60;;;12.20;99.90;;;;;;6014486;29;20492;-68
2022/10/02 03:11:54;;;;;;;1.57;1.40;;;12.30;99.90;;;;;;6014708;29;20480;-68
2022/10/02 03:15:13;;;;;;;1.30;1.10;;;12.30;99.90;;;;;;6014786;29;20516;-68
2022/10/02 03:18:36;;;;;;;2.53;1.70;;;12.30;99.90;;;;;;6015267;29;20491;-70
2022/10/02 03:21:48;;;;;;;4.60;1.73;;;12.20;99.90;;;;;;6019163;29;20544;-70
2022/10/02 03:24:59;;;;;;;2.00;1.20;;;12.20;99.90;;;;;;6018732;29;20488;-71
2022/10/02 03:28:05;;;;;;;1.60;1.50;;;12.20;99.90;;;;;;6019654;29;20493;-70
2022/10/02 03:31:12;;;;;;;1.20;1.10;;;12.20;99.90;;;;;;6019703;29;20552;-70
2022/10/02 03:34:17;;;;;;;1.30;1.20;;;12.20;99.90;;;;;;6018847;29;20452;-71
2022/10/02 03:37:20;;;;;;;1.50;1.30;;;12.20;99.90;;;;;;6019080;29;20472;-71
2022/10/02 03:40:24;;;;;;;1.97;1.33;;;12.10;99.90;;;;;;6016472;29;20955;-71
2022/10/02 03:43:30;;;;;;;2.00;1.23;;;12.10;99.90;;;;;;6013966;29;20517;-72
2022/10/02 03:46:34;;;;;;;2.00;1.13;;;12.10;99.90;;;;;;6014508;29;20472;-70
2022/10/02 03:49:38;;;;;;;1.43;1.27;;;12.10;99.90;;;;;;6015208;29;20495;-70
2022/10/02 03:52:43;;;;;;;1.50;1.17;;;12.00;99.90;;;;;;6014976;29;20548;-70
2022/10/02 03:55:51;;;;;;;1.63;1.53;;;12.00;99.90;;;;;;6014098;29;20480;-70
2022/10/02 03:58:57;;;;;;;1.40;1.10;;;11.90;99.90;;;;;;6014524;29;20544;-70
2022/10/02 04:02:06;;;;;;;1.53;1.07;;;12.00;99.90;;;;;;6023437;29;20476;-69
2022/10/02 04:05:19;;;;;;;2.93;1.20;;;11.90;99.90;;;;;;6026668;29;20563;-70
2022/10/02 04:08:27;;;;;;;2.33;1.40;;;11.80;99.90;;;;;;6016383;29;20492;-69
2022/10/02 04:11:36;;;;;;;1.50;1.40;;;11.80;99.90;;;;;;6016412;29;20488;-70
2022/10/02 04:14:48;;;;;;;2.70;1.40;;;11.80;99.90;;;;;;6015566;29;20571;-70
2022/10/02 04:18:00;;;;;;;2.30;1.13;;;11.80;99.90;;;;;;6014776;29;20500;-70
2022/10/02 04:21:11;;;;;;;1.70;1.00;;;11.70;99.90;;;;;;6015328;29;20476;-70
2022/10/02 04:24:21;;;;;;;1.50;1.30;;;11.70;99.90;;;;;;6014806;29;20480;-70
2022/10/02 04:27:33;;;;;;;2.60;1.67;;;11.70;99.90;;;;;;6014517;29;20492;-70
2022/10/02 04:30:36;;;;;;;1.50;1.40;;;11.70;99.90;;;;;;6013016;29;20472;-70
2022/10/02 04:33:41;;;;;;;2.57;1.50;;;11.70;99.90;;;;;;6013148;29;20492;-71
2022/10/02 04:37:00;;;;;;;1.50;1.37;;;11.60;99.90;;;;;;6013743;29;20781;-70
2022/10/02 04:40:29;;;;;;;1.67;1.00;;;11.60;99.90;;;;;;6016700;29;20484;-71
2022/10/02 04:43:51;;;;;;;0.90;0.90;;;11.60;99.90;;;;;;6026967;29;20475;-69
2022/10/02 04:47:08;;;;;;;6.07;1.40;;;11.50;99.90;;;;;;6037274;29;20483;-70
2022/10/02 04:50:30;;;;;;;1.43;1.23;;;11.40;99.90;;;;;;6036879;29;20480;-71
2022/10/02 04:53:47;;;;;;;1.00;0.90;;;11.30;99.90;;;;;;6036904;29;20508;-71
2022/10/02 04:57:17;;;;;;;2.23;1.40;;;11.30;99.90;;;;;;6037451;29;20487;-71
2022/10/02 05:00:21;;;;;;;2.60;1.50;;;11.30;99.90;;;;;;6036261;29;20484;-72
2022/10/02 05:03:39;;;;;;;1.10;1.00;;;11.30;99.90;;;;;;6038461;29;20821;-73
2022/10/02 05:07:02;;;;;;;1.23;1.00;;;11.30;99.90;;;;;;6039200;29;20487;-72
2022/10/02 05:10:21;;;;;;;1.30;1.20;;;11.30;99.90;;;;;;6042555;29;20952;-71
2022/10/02 05:13:41;;;;;;;2.37;1.57;;;11.40;99.90;;;;;;6041474;29;20508;-71
2022/10/02 05:16:57;;;;;;;3.10;1.30;;;11.40;99.90;;;;;;6041756;29;20475;-71
2022/10/02 05:20:17;;;;;;;1.43;1.10;;;11.40;99.90;;;;;;6041242;29;20483;-72
2022/10/02 05:23:41;;;;;;;1.73;1.00;;;11.40;99.90;;;;;;6043085;29;20487;-72
2022/10/02 05:27:18;;;;;;;1.77;1.20;;;11.40;99.90;;;;;;6043833;29;20480;-72
2022/10/02 05:30:21;;;;;;;1.37;1.27;;;11.40;99.90;;;;;;6042582;29;20479;-71
2022/10/02 05:33:49;;;;;;;0.80;0.80;;;11.40;99.90;;;;;;6043090;29;20479;-72
2022/10/02 05:37:05;;;;;;;4.10;2.37;;;11.40;99.90;;;;;;6042921;29;20614;-72
2022/10/02 05:40:19;;;;;;;1.40;1.07;;;11.30;99.90;;;;;;6042985;29;20483;-72
2022/10/02 05:43:30;;;;;;;1.83;1.20;;;11.30;99.90;;;;;;6042798;29;20793;-72
2022/10/02 05:46:39;;;;;;;1.10;1.10;;;11.30;99.90;;;;;;6040077;29;20471;-72
2022/10/02 05:49:50;;;;;;;1.97;1.40;;;11.30;99.90;;;;;;6044643;29;20496;-71
2022/10/02 05:52:57;;;;;;;1.00;0.90;;;11.20;99.90;;;;;;6039975;29;20539;-72
2022/10/02 05:56:08;;;;;;;1.97;1.40;;;11.30;99.90;;;;;;6039839;29;20490;-72
2022/10/02 05:59:19;;;;;;;3.47;1.40;;;11.30;99.90;;;;;;6039907;29;20814;-73
2022/10/02 06:02:32;;;;;;;1.63;1.53;;;11.30;99.90;;;;;;6039530;29;20841;-72
2022/10/02 06:05:53;;;;;;;3.03;2.50;;;11.10;99.90;;;;;;6039213;29;20498;-72
2022/10/02 06:09:02;;;;;;;1.80;1.70;;;11.10;99.90;;;;;;6039158;29;20494;-72
2022/10/02 06:12:11;;;;;;;3.93;3.17;;;11.20;99.90;;;;;;6034892;29;20536;-73
2022/10/02 06:15:21;;;;;;;3.50;2.17;;;11.20;99.90;;;;;;6039127;29;20929;-72
2022/10/02 06:18:30;;;;;;;3.63;3.33;;;11.30;99.90;;;;;;6038421;29;20492;-73
2022/10/02 06:21:38;;;;;;;3.57;2.27;;;11.50;99.90;;;;;;6038051;29;20490;-73
2022/10/02 06:24:47;;;;;;;3.80;2.20;;;11.60;99.90;;;;;;6038779;29;20564;-73
2022/10/02 06:27:57;;;;;;;2.40;2.20;;;11.80;99.90;;;;;;6038684;29;20484;-72
2022/10/02 06:31:10;;;;;;;3.00;2.10;;;12.10;99.90;;;;;;6039724;29;20632;-71
2022/10/02 06:34:14;;;;;;;3.90;2.50;;;12.40;99.90;;;;;;6037946;29;21248;-72
2022/10/02 06:37:48;;;;;;;3.77;3.00;;;12.60;99.90;;;;;;6038747;29;20920;-71
2022/10/02 06:41:00;;;;;;;7.43;3.10;;;12.80;99.90;;;;;;6038427;29;20479;-72
2022/10/02 06:44:16;;;;;;;3.67;3.27;;;13.20;99.90;;;;;;6038587;29;20494;-73
2022/10/02 06:47:33;;;;;;;4.10;3.03;;;13.40;99.90;;;;;;6038297;29;20483;-72
2022/10/02 06:50:45;;;;;;;4.90;3.43;;;13.60;99.90;;;;;;6039042;29;20494;-73
2022/10/02 06:54:19;;;;;;;6.50;4.10;;;13.80;99.90;;;;;;6037767;29;20479;-73
2022/10/02 06:57:36;;;;;;;2.90;2.70;;;13.90;99.90;;;;;;6037471;29;20491;-71
2022/10/02 07:00:49;;;;;;;3.97;2.40;;;13.90;99.90;;;;;;6038317;29;20476;-71
2022/10/02 07:04:19;;;;;;;3.10;2.77;;;14.20;99.90;;;;;;6037670;29;20483;-71
2022/10/02 07:07:41;;;;;;;3.70;2.87;;;14.30;99.90;;;;;;6039570;29;20963;-71
2022/10/02 07:10:49;;;;;;;3.10;2.90;;;14.40;99.90;;;;;;6042534;29;20528;-70
2022/10/02 07:14:06;;;;;;;4.23;3.00;;;14.50;99.90;;;;;;6041124;29;20475;-71
2022/10/02 07:17:24;;;;;;;4.13;2.90;;;14.90;99.90;;;;;;6037817;29;20547;-71
2022/10/02 07:20:35;;;;;;;4.23;3.47;;;16.10;99.90;;;;;;6038135;29;20514;-72
2022/10/02 07:23:49;;;;;;;4.80;3.80;;;17.10;99.90;;;;;;6036920;29;20811;-73
2022/10/02 07:26:57;;;;;;;8.33;3.20;;;17.50;99.90;;;;;;6036659;29;20500;-72
2022/10/02 07:30:04;;;;;;;2.83;2.50;;;17.70;99.90;;;;;;6036246;29;20483;-72
2022/10/02 07:33:19;;;;;;;2.53;2.20;;;17.80;99.90;;;;;;6036622;29;20570;-73
2022/10/02 07:36:33;;;;;;;2.60;2.40;;;18.10;99.90;;;;;;6037318;29;21031;-73
2022/10/02 07:39:51;;;;;;;2.90;2.17;;;18.00;99.90;;;;;;6037584;29;20476;-72
2022/10/02 07:43:04;;;;;;;3.13;2.70;;;17.70;99.90;;;;;;6038803;29;20479;-72
2022/10/02 07:46:16;;;;;;;2.80;2.60;;;17.50;99.90;;;;;;6045905;29;20995;-72
2022/10/02 07:49:37;;;;;;;4.67;2.10;;;17.90;99.90;;;;;;6037943;29;20499;-72
2022/10/02 07:52:49;;;;;;;3.80;2.33;;;19.50;99.90;;;;;;6029710;29;20480;-72
2022/10/02 07:55:54;;;;;;;2.83;2.40;;;23.90;95.60;;;;;;6014225;29;20250;-71
2022/10/02 07:59:04;;;;;;;2.90;2.00;;;27.90;84.30;;;;;;6014647;29;20235;-71
2022/10/02 08:02:11;;;;;;;2.33;2.13;;;31.30;60.20;;;;;;6014880;29;20295;-71
2022/10/02 08:05:20;;;;;;;2.60;1.73;;;34.10;50.10;;;;;;6015676;29;20226;-73
2022/10/02 08:08:28;;;;;;;2.38;2.17;;;36.20;41.10;;;;;;6015708;29;20239;-73
2022/10/02 08:11:37;;;;;;;3.75;1.95;;;37.70;37.10;;;;;;6016104;29;20579;-73
2022/10/02 08:14:42;;;;;;;2.78;1.35;;;39.30;34.70;;;;;;6015059;29;20622;-72
2022/10/02 08:17:50;;;;;;;3.47;1.80;;;40.50;30.60;;;;;;6014864;29;20243;-73
2022/10/02 08:20:55;;;;;;;1.92;1.83;;;41.60;29.10;;;;;;6015330;29;20246;-74
2022/10/02 08:24:02;;;;;;;2.47;1.48;;;42.50;27.20;;;;;;6016047;29;20235;-73
2022/10/02 08:27:09;;;;;;;1.67;1.58;;;43.30;26.40;;;;;;6017476;29;20239;-72
2022/10/02 08:30:14;;;;;;;2.65;1.73;;;44.00;25.10;;;;;;6017703;29;20251;-73
2022/10/02 08:33:20;;;;;;;2.28;1.08;;;43.20;25.10;;;;;;6015917;29;20235;-73
2022/10/02 08:37:04;;;;;;;6.68;3.65;;;42.20;25.10;;;;;;6016369;29;20238;-72
2022/10/02 08:40:49;;;;;;;1.10;0.82;;;41.90;24.80;;;;;;6014274;29;20235;-73
2022/10/02 08:44:28;;;;;;;1.40;1.00;;;43.60;23.00;;;;;;5977247;29;20240;-72
2022/10/02 08:48:21;;;;;;;1.38;1.10;;;45.00;22.10;;;;;;6000982;29;20240;-72
2022/10/02 08:51:54;;;;;;;2.45;0.82;;;46.10;21.10;;;;;;6020537;29;20296;-69
2022/10/02 08:55:37;;;;;;;1.05;0.80;;;46.80;20.90;;;;;;6027755;29;20246;-71
2022/10/02 08:59:02;;;;;;;2.30;1.00;;;45.90;19.80;;;;;;6022590;29;20687;-71
2022/10/02 09:02:52;;;;;;;1.10;0.60;;;45.70;19.70;;;;;;6028975;29;20570;-71
2022/10/02 09:06:37;;;;;;;1.75;0.85;;;45.30;20.70;;;;;;6030656;29;20234;-72
2022/10/02 09:10:29;;;;;;;1.70;0.60;;;42.80;21.40;;;;;;6000417;29;20235;-71
2022/10/02 09:14:08;;;;;;;1.20;0.80;;;40.70;22.70;;;;;;6022230;29;20207;-71
2022/10/02 09:17:19;;;;;;;1.38;1.02;;;38.80;24.40;;;;;;6024564;29;20222;-70
2022/10/02 09:21:05;;;;;;;1.52;0.70;;;36.50;25.70;;;;;;6028960;29;20293;-73
2022/10/02 09:24:58;;;;;;;1.52;0.60;;;34.50;28.00;;;;;;6017209;29;20245;-70
2022/10/02 09:28:36;;;;;;;2.13;0.98;;;32.50;29.30;;;;;;6025728;29;20245;-70
2022/10/02 09:32:13;;;;;;;2.25;1.35;;;30.90;30.80;;;;;;6029289;29;20574;-69
2022/10/02 09:36:00;;;;;;;1.57;1.23;;;30.10;31.50;;;;;;6025151;29;20298;-70
2022/10/02 09:39:26;;;;;;;1.20;0.80;;;29.40;33.00;;;;;;6028407;29;20234;-69
2022/10/02 09:43:04;;;;;;;1.43;1.03;;;28.80;34.00;;;;;;6038121;29;20702;-69
2022/10/02 09:46:46;;;;;;;1.70;1.20;;;27.80;36.60;;;;;;6036738;29;20227;-68
2022/10/02 09:50:33;;;;;;;1.40;1.00;;;26.60;38.40;;;;;;6035055;29;20242;-69
2022/10/02 09:54:22;;;;;;;2.70;1.33;;;25.70;41.20;;;;;;6021870;29;20231;-70
2022/10/02 09:57:55;;;;;;;2.10;0.83;;;25.00;42.20;;;;;;6011723;29;20239;-69
2022/10/02 10:01:40;;;;;;;1.20;0.90;;;24.50;43.20;;;;;;6031661;29;20225;-69
2022/10/02 10:05:16;;;;;;;1.60;1.03;;;24.00;44.00;;;;;;6035960;29;20230;-69
2022/10/02 10:08:59;;;;;;;1.27;0.90;;;23.40;45.00;;;;;;6018889;29;20668;-69
2022/10/02 10:12:41;;;;;;;2.40;1.10;;;23.00;46.00;;;;;;6018273;29;20267;-68
2022/10/02 10:16:21;;;;;;;1.17;1.00;;;22.50;46.50;;;;;;6011219;29;20242;-68
2022/10/02 10:19:58;;;;;;;2.60;1.70;;;22.20;49.50;;;;;;6001397;29;20235;-69
2022/10/02 10:23:24;;;;;;;2.50;1.80;;;22.00;51.60;;;;;;6018376;29;20574;-69
2022/10/02 10:26:48;;;;;;;1.40;1.30;;;21.80;53.00;;;;;;6023048;29;20239;-70
2022/10/02 10:30:12;;;;;;;2.50;1.20;;;21.60;53.80;;;;;;6025493;29;20242;-69
2022/10/02 10:33:43;;;;;;;1.57;1.00;;;21.50;54.60;;;;;;6019325;29;20242;-70
2022/10/02 10:40:34;;;;;;;1.43;1.23;;;20.80;56.70;;;;;;6017096;29;20234;-69
2022/10/02 10:44:07;;;;;;;1.43;1.30;;;19.90;61.10;;;;;;6021398;29;20235;-70
2022/10/02 10:47:34;;;;;;;1.50;1.27;;;19.20;65.40;;;;;;6024744;29;20235;-71
2022/10/02 10:51:00;;;;;;;1.63;1.50;;;19.10;67.70;;;;;;6023563;29;20254;-69
2022/10/02 10:54:39;;;;;;;1.70;1.60;;;18.60;73.90;;;;;;6014660;29;20280;-66
2022/10/02 10:58:13;;;;;;;2.07;1.87;;;18.50;78.70;;;;;;6011785;29;20476;-66
2022/10/02 11:01:20;;;;;;;2.80;1.50;;;18.40;83.40;;;;;;6017459;29;20928;-65
2022/10/02 11:04:45;;;;;;;2.13;1.73;;;18.30;85.90;;;;;;6014166;29;20649;-66
2022/10/02 11:08:05;;;;;;;3.63;1.77;;;18.20;87.10;;;;;;6014392;29;20869;-66
2022/10/02 11:11:17;;;;;;;4.37;1.50;;;18.10;86.70;;;;;;6014560;29;20489;-67
2022/10/02 11:14:28;;;;;;;1.53;1.43;;;18.10;86.60;;;;;;6015503;29;20484;-68
2022/10/02 11:18:11;;;;;;;2.20;1.50;;;18.00;88.60;;;;;;6014655;29;20492;-68
2022/10/02 11:21:41;;;;;;;1.43;1.33;;;18.00;89.30;;;;;;6013044;29;20461;-68
2022/10/02 11:25:09;;;;;;;1.57;1.47;;;18.10;89.70;;;;;;6014309;29;20480;-69
2022/10/02 11:28:37;;;;;;;1.20;1.10;;;18.10;90.40;;;;;;6013984;29;20758;-68
2022/10/02 11:31:58;;;;;;;2.30;1.20;;;18.20;90.90;;;;;;6010008;29;20833;-68
2022/10/02 11:35:25;;;;;;;1.43;1.33;;;18.20;90.80;;;;;;6014138;29;20977;-69
2022/10/02 11:38:54;;;;;;;1.80;1.47;;;18.30;90.40;;;;;;6014613;29;20498;-69
2022/10/02 11:42:10;;;;;;;2.37;1.50;;;18.40;90.60;;;;;;6018869;29;20276;-68
2022/10/02 11:45:50;;;;;;;1.60;1.50;;;18.50;90.70;;;;;;6014706;29;20488;-68
2022/10/02 11:49:09;;;;;;;2.80;2.37;;;18.70;91.20;;;;;;6011055;29;20498;-68
2022/10/02 11:52:37;;;;;;;3.17;1.90;;;18.90;91.70;;;;;;6014698;29;20238;-68
2022/10/02 11:55:55;;;;;;;2.03;1.83;;;19.20;91.80;;;;;;6014731;29;20247;-69
2022/10/02 11:59:29;;;;;;;2.23;2.03;;;19.50;91.70;;;;;;6014363;29;20243;-69
2022/10/02 12:02:38;;;;;;;1.73;1.63;;;19.80;91.30;;;;;;5994465;29;20239;-69
2022/10/02 12:05:54;;;;;;;1.67;1.47;;;19.90;90.20;;;;;;6013870;29;20239;-69
2022/10/02 12:09:06;;;;;;;1.63;1.53;;;20.10;87.30;;;;;;6013288;29;20252;-68
2022/10/02 12:12:24;;;;;;;3.93;2.10;;;20.30;86.80;;;;;;6011334;29;20235;-69
2022/10/02 12:15:39;;;;;;;1.73;1.60;;;20.30;87.00;;;;;;6012735;29;20235;-69
2022/10/02 12:18:56;;;;;;;2.50;1.70;;;20.20;82.80;;;;;;6012214;29;20255;-70
2022/10/02 12:29:07;;;;;;;2.07;1.40;;;19.90;83.80;;;;;;6011708;29;20269;-68
2022/10/02 12:32:22;;;;;;;2.60;1.40;;;20.00;82.60;;;;;;6034958;29;20245;-70
2022/10/02 12:35:47;;;;;;;2.40;1.20;;;20.10;83.50;;;;;;6035854;29;20571;-63
2022/10/02 12:39:02;;;;;;;1.57;1.40;;;20.10;83.90;;;;;;6035496;29;20247;-64
2022/10/02 12:42:56;;;;;;;1.63;1.43;;;21.00;85.70;;;;;;6012629;29;20231;-63
2022/10/02 12:46:35;;;;;;;1.70;1.60;;;22.60;78.00;;;;;;5951339;29;20605;-62
2022/10/02 12:49:50;;;;;;;1.43;1.33;;;22.60;75.90;;;;;;6012222;29;20246;-63
2022/10/02 12:53:44;;;;;;;4.00;2.10;;;22.20;75.20;;;;;;6012944;29;20334;-65
2022/10/02 12:57:50;;;;;;;3.93;2.27;;;21.70;76.30;;;;;;5996657;29;20320;-60
2022/10/02 13:01:08;;;;;;;1.90;1.70;;;21.50;77.80;;;;;;6012460;29;20235;-60
2022/10/02 13:04:45;;;;;;;2.70;1.80;;;21.30;78.80;;;;;;6012693;29;20246;-64
2022/10/02 13:08:17;;;;;;;6.23;4.53;;;21.10;80.20;;;;;;6012483;29;20243;-64
2022/10/02 13:11:33;;;;;;;2.30;2.10;;;20.60;81.60;;;;;;6012741;29;20231;-64
2022/10/02 13:14:55;;;;;;;2.57;2.37;;;20.30;83.70;;;;;;6007757;29;20243;-64
2022/10/02 13:18:10;;;;;;;2.30;1.73;;;20.40;85.60;;;;;;6012297;29;20250;-65
2022/10/02 13:21:21;;;;;;;1.50;1.40;;;20.40;85.60;;;;;;6012368;29;20239;-65
2022/10/02 13:24:41;;;;;;;2.00;1.80;;;20.50;85.70;;;;;;6012538;29;20292;-64
2022/10/02 13:27:52;;;;;;;3.40;1.93;;;20.50;84.50;;;;;;6012491;29;20247;-64
2022/10/02 13:31:05;;;;;;;1.90;1.70;;;20.40;84.50;;;;;;6016422;29;20375;-65
2022/10/02 13:34:29;;;;;;;2.27;1.90;;;20.30;84.90;;;;;;6016764;29;20692;-65
2022/10/02 13:37:49;;;;;;;3.43;1.93;;;20.20;85.00;;;;;;6015910;29;20770;-65
2022/10/02 13:41:04;;;;;;;3.20;2.13;;;20.20;86.90;;;;;;6015994;29;20235;-64
2022/10/02 13:44:21;;;;;;;4.53;2.03;;;20.20;86.50;;;;;;6017601;29;20680;-63
2022/10/02 13:47:39;;;;;;;4.13;1.90;;;20.00;86.10;;;;;;6018458;29;20239;-63
2022/10/02 13:50:49;;;;;;;1.70;1.30;;;19.90;87.60;;;;;;6018672;29;20240;-63
2022/10/02 13:54:14;;;;;;;3.20;1.50;;;20.00;86.80;;;;;;6017223;29;20243;-62
2022/10/02 13:57:37;;;;;;;2.77;2.00;;;20.20;86.20;;;;;;6017365;29;20721;-63
2022/10/02 14:00:57;;;;;;;1.50;1.40;;;20.50;85.70;;;;;;6016546;29;20246;-63
2022/10/02 14:04:14;;;;;;;4.17;1.70;;;20.70;85.30;;;;;;6016239;29;20243;-62
2022/10/02 14:07:35;;;;;;;2.53;1.57;;;20.90;84.10;;;;;;6014212;29;20787;-63
2022/10/02 14:10:52;;;;;;;1.90;1.30;;;21.00;80.90;;;;;;6012563;29;20594;-62
2022/10/02 14:14:12;;;;;;;2.77;2.00;;;21.00;79.50;;;;;;6015301;29;20239;-63
2022/10/02 14:17:26;;;;;;;3.00;1.27;;;20.90;79.00;;;;;;6015080;29;20247;-63
2022/10/02 14:20:39;;;;;;;2.03;1.50;;;20.70;79.40;;;;;;6013531;29;20787;-64
2022/10/02 14:23:59;;;;;;;1.30;1.10;;;20.60;80.10;;;;;;6014441;29;20629;-63
2022/10/02 14:27:11;;;;;;;3.17;1.23;;;20.50;80.60;;;;;;6014130;29;20239;-64
2022/10/02 14:30:20;;;;;;;4.10;1.90;;;20.50;80.60;;;;;;6020909;29;20231;-64
2022/10/02 14:33:37;;;;;;;2.10;1.23;;;20.30;81.40;;;;;;6018746;29;20299;-65
2022/10/02 14:36:50;;;;;;;1.90;1.23;;;19.90;82.10;;;;;;6015937;29;20235;-65
2022/10/02 14:39:57;;;;;;;2.37;1.13;;;19.90;81.90;;;;;;6015390;29;20243;-64
2022/10/02 14:43:19;;;;;;;1.33;1.13;;;19.90;82.00;;;;;;6015364;29;20235;-66
2022/10/02 14:46:36;;;;;;;1.60;1.23;;;19.80;81.40;;;;;;6014940;29;20258;-65
2022/10/02 14:50:14;;;;;;;1.00;0.90;;;19.60;81.70;;;;;;6016768;29;20304;-64
2022/10/02 14:53:43;;;;;;;3.17;1.60;;;19.50;82.10;;;;;;6015302;29;20239;-64
2022/10/02 14:57:23;;;;;;;1.30;1.20;;;19.40;83.50;;;;;;6021574;29;20248;-64
2022/10/02 15:00:36;;;;;;;4.80;1.30;;;19.40;84.40;;;;;;6020809;29;20250;-64
2022/10/02 15:04:09;;;;;;;1.77;1.30;;;19.50;84.60;;;;;;6020900;29;20305;-65
2022/10/02 15:07:13;;;;;;;1.40;1.30;;;19.50;84.60;;;;;;6017491;29;20243;-65
2022/10/02 15:10:21;;;;;;;2.00;1.67;;;19.50;84.60;;;;;;6024297;29;20231;-65
2022/10/02 15:13:31;;;;;;;1.60;1.50;;;19.60;84.50;;;;;;5998527;29;20236;-65
2022/10/02 15:20:20;;;;;;;2.53;1.70;;;19.50;85.30;;;;;;6013161;29;20238;-63
2022/10/02 15:23:39;;;;;;;2.00;1.80;;;19.50;86.10;;;;;;6013756;29;20247;-64
2022/10/02 15:26:50;;;;;;;2.10;1.47;;;19.40;86.40;;;;;;6013429;29;20307;-64
2022/10/02 15:30:11;;;;;;;1.53;1.43;;;19.50;86.50;;;;;;6018670;29;20245;-64
2022/10/02 15:33:27;;;;;;;2.67;1.30;;;19.50;86.50;;;;;;6037333;29;20239;-65
2022/10/02 15:36:49;;;;;;;3.80;1.40;;;19.50;86.80;;;;;;6024723;29;20236;-65
2022/10/02 15:40:20;;;;;;;1.70;1.60;;;19.40;87.60;;;;;;6014152;29;20244;-64
2022/10/02 15:43:38;;;;;;;1.50;1.40;;;19.40;89.40;;;;;;6014650;29;20216;-65
2022/10/02 15:46:52;;;;;;;1.67;1.37;;;19.30;90.20;;;;;;6014505;29;20311;-65
2022/10/02 15:50:24;;;;;;;1.60;1.40;;;19.20;90.40;;;;;;6014337;29;20238;-64
2022/10/02 15:53:38;;;;;;;1.63;1.30;;;19.10;90.90;;;;;;6011189;29;20247;-65
2022/10/02 15:57:06;;;;;;;2.03;1.77;;;19.00;91.10;;;;;;6014698;29;20231;-64
2022/10/02 16:00:15;;;;;;;2.17;1.97;;;19.00;92.10;;;;;;6013070;29;20239;-59
2022/10/02 16:03:23;;;;;;;2.50;2.30;;;18.80;92.80;;;;;;6012776;29;20933;-64
2022/10/02 16:06:52;;;;;;;3.90;2.70;;;18.80;92.80;;;;;;6013198;29;20550;-64
2022/10/02 16:10:12;;;;;;;3.50;3.00;;;18.80;93.20;;;;;;6012583;29;20239;-63
2022/10/02 16:13:33;;;;;;;5.50;3.93;;;18.70;94.00;;;;;;6013431;29;20246;-63
2022/10/02 16:17:02;;;;;;;4.00;2.83;;;18.60;95.30;;;;;;6013438;29;20834;-62
2022/10/02 16:20:29;;;;;;;4.40;2.60;;;18.50;96.70;;;;;;6013353;29;20231;-62
2022/10/02 16:23:59;;;;;;;5.43;3.10;;;18.40;97.90;;;;;;6013061;29;20473;-62
2022/10/02 16:27:35;;;;;;;4.20;3.70;;;18.30;99.80;;;;;;6013517;29;20480;-62
2022/10/02 16:31:01;;;;;;;5.10;4.07;;;18.20;99.90;;;;;;6012813;29;20985;-62
2022/10/02 16:34:19;;;;;;;3.20;2.83;;;18.10;99.90;;;;;;6013302;29;20653;-63
2022/10/02 16:37:25;;;;;;;3.00;2.70;;;18.00;99.90;;;;;;6013144;29;20497;-64
2022/10/02 16:40:38;;;;;;;3.50;2.70;;;17.90;99.90;;;;;;6013370;29;20484;-65
2022/10/02 16:43:57;;;;;;;3.33;2.37;;;17.90;99.90;;;;;;6013688;29;20476;-64
2022/10/02 16:47:09;;;;;;;3.70;2.80;;;17.80;99.90;;;;;;6013441;29;20614;-63
2022/10/02 16:50:22;;;;;;;2.97;2.60;;;17.70;99.90;;;;;;6009157;29;20476;-64
2022/10/02 16:53:30;;;;;;;3.23;2.93;;;17.60;99.90;;;;;;6013131;29;20500;-64
2022/10/02 16:56:42;;;;;;;4.83;2.60;;;17.50;99.90;;;;;;6013321;29;20476;-64
2022/10/02 16:59:53;;;;;;;2.93;2.30;;;17.40;99.90;;;;;;6013366;29;20485;-65
2022/10/02 17:03:02;;;;;;;2.10;1.90;;;17.40;99.90;;;;;;6012990;29;20480;-64
2022/10/02 17:06:15;;;;;;;3.20;2.50;;;17.30;99.90;;;;;;6017350;29;20613;-65
2022/10/02 17:09:22;;;;;;;8.27;4.73;;;17.10;99.90;;;;;;6017133;29;20992;-66
2022/10/02 17:12:30;;;;;;;7.33;3.90;;;17.00;99.90;;;;;;6016955;29;20480;-64
2022/10/02 17:15:45;;;;;;;5.67;4.63;;;16.90;99.90;;;;;;6017340;29;20958;-65
2022/10/02 17:18:54;;;;;;;4.23;3.83;;;16.90;99.90;;;;;;6016757;29;20487;-65
2022/10/02 17:22:02;;;;;;;4.60;3.90;;;16.80;99.90;;;;;;6017741;29;20484;-65
2022/10/02 17:25:19;;;;;;;3.30;3.00;;;16.80;99.90;;;;;;6016656;29;20988;-64
2022/10/02 17:28:29;;;;;;;3.47;3.17;;;16.70;99.90;;;;;;6017354;29;20480;-65